UASP

Details ICAO UASP (PWQ)
Name PAVLODAR
Region Kazakhstan and Kyrgyzstan
Timezone Asia/Almaty (UTC+6.0)
Plans Departing 8
Arriving 15
Stats Elevation 410 ft / 125 m (AMSL)
Location 52.194862° 77.074028°
Runways 1
Magnetic Variation 9.252° E
Sunrise 2018-05-23 22:46:34 UTC / 2018-05-24 04:46:34 Local
Sunset 2018-05-24 14:53:21 UTC / 2018-05-24 20:53:21 Local
Advertisement - Login to hide

Runways

ID Width Length Bearing (true) Bearing (mag) Surface Threshold Offset Overrun Length
03 148 ft / 45 m 8,145 ft / 2,483 m 42.75° 33.50° Concrete 0 ft / 0 m 0 ft / 0 m
21 148 ft / 45 m 8,145 ft / 2,483 m 222.77° 213.52° Concrete 0 ft / 0 m 0 ft / 0 m

Map

Weather


0- 5 10 15 20 25 30 35+ Temperature / ° C

Clouds and Precipitation
Forecast for 2018-05-24 00:00 UTC. Updated 2 hours ago

Ground ~20,000 ft ~40,000 ft Winds

METAR

UASP 240100Z 26002MPS 9999 FEW020 SCT220 04/01 Q1024 R21/0///70 NOSIG RMK QFE757/1009

TAF

Not found

Frequencies

Tower 119.80 MHz TWR
Warning: Do not use this data for real-world aviation or navigation. No guarantee of current accuracy is given.